Time;durP1;ratioP1;P1;durP2;ratioP2;P2;SDS_P1;SDS_P2;PMS_P1;PMS_P2;Temp;Humidity;BMP_temperature;BMP_pressure;BME280_temperature;BME280_humidity;BME280_pressure;Samples;Min_cycle;Max_cycle;Signal;HPM_P1;HPM_P2
2023/08/22 00:00:16;;;;;;;23.43;9.30;;;17.50;99.90;;;;;;5057444;28;20048;-73
2023/08/22 00:02:43;;;;;;;16.73;7.73;;;17.50;99.90;;;;;;5057137;28;20326;-74
2023/08/22 00:05:09;;;;;;;11.75;5.68;;;17.50;99.90;;;;;;5057718;28;20057;-74
2023/08/22 00:07:35;;;;;;;15.32;6.25;;;17.60;99.90;;;;;;5055927;28;20052;-74
2023/08/22 00:10:01;;;;;;;16.17;6.33;;;17.60;99.90;;;;;;5055355;28;20053;-74
2023/08/22 00:12:26;;;;;;;17.10;6.90;;;17.70;99.90;;;;;;5056922;28;20052;-74
2023/08/22 00:14:52;;;;;;;22.43;7.47;;;17.70;99.90;;;;;;5055407;28;20048;-73
2023/08/22 00:17:18;;;;;;;16.70;8.10;;;17.70;99.90;;;;;;5056569;28;20091;-73
2023/08/22 00:19:45;;;;;;;22.03;7.67;;;17.70;99.90;;;;;;5040195;28;20071;-73
2023/08/22 00:22:11;;;;;;;;;;;17.70;99.90;;;;;;5057066;28;20049;-74
2023/08/22 00:24:38;;;;;;;16.70;7.40;;;17.60;99.90;;;;;;5089617;28;20356;-74
2023/08/22 00:27:04;;;;;;;12.25;6.63;;;17.60;99.90;;;;;;5057103;28;20380;-74
2023/08/22 00:29:30;;;;;;;16.67;7.53;;;17.50;99.90;;;;;;5056568;28;20037;-73
2023/08/22 00:31:57;;;;;;;19.83;8.90;;;17.40;99.90;;;;;;5055970;28;20131;-72
2023/08/22 00:34:23;;;;;;;18.52;9.15;;;17.30;99.90;;;;;;5072992;28;20041;-72
2023/08/22 00:36:49;;;;;;;21.50;9.03;;;17.30;99.90;;;;;;5056500;28;20135;-73
2023/08/22 00:39:14;;;;;;;18.17;9.20;;;17.20;99.90;;;;;;5056359;28;20431;-72
2023/08/22 00:41:40;;;;;;;22.10;10.00;;;17.20;99.90;;;;;;5038885;28;20041;-74
2023/08/22 00:44:06;;;;;;;21.97;9.97;;;17.20;99.90;;;;;;5056326;28;20124;-73
2023/08/22 00:46:32;;;;;;;22.73;10.40;;;17.10;99.90;;;;;;5056733;28;20362;-73
2023/08/22 00:48:58;;;;;;;20.10;11.33;;;17.00;99.90;;;;;;5056192;28;20083;-74
2023/08/22 00:51:24;;;;;;;20.50;11.30;;;16.90;99.90;;;;;;5054996;28;20607;-74
2023/08/22 00:53:50;;;;;;;24.08;11.20;;;16.80;99.90;;;;;;5056020;28;20094;-74
2023/08/22 00:56:16;;;;;;;25.70;11.13;;;16.70;99.90;;;;;;5054995;28;20115;-73
2023/08/22 00:58:41;;;;;;;24.00;12.40;;;16.70;99.90;;;;;;5054984;28;20045;-73
2023/08/22 01:01:08;;;;;;;24.83;13.73;;;16.70;99.90;;;;;;5055846;28;20048;-73
2023/08/22 01:03:36;;;;;;;23.73;14.18;;;16.70;99.90;;;;;;5055185;28;20103;-72
2023/08/22 01:06:16;;;;;;;28.13;13.63;;;16.70;99.90;;;;;;5056369;28;20124;-72
2023/08/22 01:08:46;;;;;;;28.77;13.85;;;16.60;99.90;;;;;;5055380;28;20429;-73
2023/08/22 01:11:24;;;;;;;23.67;13.70;;;16.70;99.90;;;;;;5056947;28;20076;-73
2023/08/22 01:13:54;;;;;;;25.58;13.07;;;16.70;99.90;;;;;;5056274;28;20055;-73
2023/08/22 01:16:20;;;;;;;34.08;14.48;;;16.70;99.90;;;;;;5055608;28;20045;-72
2023/08/22 01:18:47;;;;;;;23.60;13.30;;;16.80;99.90;;;;;;5054472;28;20071;-73
2023/08/22 01:21:22;;;;;;;27.08;12.88;;;16.80;99.90;;;;;;5088190;28;20049;-73
2023/08/22 01:23:48;;;;;;;23.63;12.77;;;16.90;99.90;;;;;;5071374;28;20060;-74
2023/08/22 01:26:14;;;;;;;25.53;13.10;;;16.90;99.90;;;;;;5055522;28;20310;-74
2023/08/22 01:28:45;;;;;;;27.10;12.53;;;17.00;99.90;;;;;;5056322;28;20128;-74
2023/08/22 01:31:22;;;;;;;21.95;12.60;;;16.90;99.90;;;;;;5056044;28;20060;-73
2023/08/22 01:34:05;;;;;;;28.67;13.70;;;16.90;99.90;;;;;;5055410;28;20060;-73
2023/08/22 01:36:31;;;;;;;26.48;13.77;;;17.00;99.90;;;;;;5054219;28;20048;-73
2023/08/22 01:38:57;;;;;;;26.37;13.30;;;17.00;99.90;;;;;;5087847;28;20117;-72
2023/08/22 01:41:23;;;;;;;27.33;13.13;;;17.00;99.90;;;;;;5055206;28;20056;-73
2023/08/22 01:43:52;;;;;;;25.70;13.25;;;17.10;99.90;;;;;;5055227;28;20041;-72
2023/08/22 01:46:18;;;;;;;27.45;14.65;;;17.10;99.90;;;;;;5054016;28;20064;-73
2023/08/22 01:48:44;;;;;;;26.33;13.43;;;17.10;99.90;;;;;;5055147;28;20045;-73
2023/08/22 01:51:09;;;;;;;27.43;14.87;;;17.00;99.90;;;;;;5055161;28;20048;-73
2023/08/22 01:53:35;;;;;;;31.73;15.87;;;17.10;99.90;;;;;;5053813;28;20075;-73
2023/08/22 01:56:01;;;;;;;30.20;16.07;;;17.00;99.90;;;;;;5054031;28;20080;-72
2023/08/22 01:58:28;;;;;;;29.15;16.58;;;17.00;99.90;;;;;;5054836;28;20055;-73
2023/08/22 02:00:53;;;;;;;31.10;15.87;;;16.90;99.90;;;;;;5087897;28;20040;-73
2023/08/22 02:03:20;;;;;;;32.47;16.37;;;16.90;99.90;;;;;;5054824;28;20094;-73
2023/08/22 02:05:46;;;;;;;;;;;16.90;99.90;;;;;;5055892;28;20362;-73
2023/08/22 02:08:12;;;;;;;30.23;16.38;;;16.80;99.90;;;;;;5054947;28;19920;-72
2023/08/22 02:10:38;;;;;;;30.27;15.93;;;16.80;99.90;;;;;;5054792;28;20061;-73
2023/08/22 02:13:03;;;;;;;27.10;15.20;;;16.70;99.90;;;;;;5054707;28;20045;-74
2023/08/22 02:15:29;;;;;;;33.20;15.33;;;16.70;99.90;;;;;;5053818;28;20049;-72
2023/08/22 02:17:55;;;;;;;32.53;16.02;;;16.70;99.90;;;;;;5055106;28;20084;-73
2023/08/22 02:20:22;;;;;;;27.63;14.60;;;16.70;99.90;;;;;;5055066;28;20048;-73
2023/08/22 02:22:48;;;;;;;35.15;15.63;;;16.70;99.90;;;;;;5053758;28;20044;-72
2023/08/22 02:25:13;;;;;;;32.23;16.57;;;16.70;99.90;;;;;;5055580;28;20040;-73
2023/08/22 02:27:39;;;;;;;28.97;15.37;;;16.70;99.90;;;;;;5053924;28;20469;-73
2023/08/22 02:30:07;;;;;;;29.20;15.03;;;16.70;99.90;;;;;;5053648;28;20546;-71
2023/08/22 02:32:33;;;;;;;28.40;15.27;;;16.70;99.90;;;;;;5036763;28;20052;-72
2023/08/22 02:34:58;;;;;;;33.93;15.70;;;16.60;99.90;;;;;;5054374;28;20378;-73
2023/08/22 02:37:24;;;;;;;30.03;16.03;;;16.70;99.90;;;;;;5053373;28;20060;-74
2023/08/22 02:39:50;;;;;;;33.20;15.50;;;16.60;99.90;;;;;;5055254;28;20053;-73
2023/08/22 02:42:15;;;;;;;26.47;15.87;;;16.70;99.90;;;;;;5055476;28;20072;-73
2023/08/22 02:44:41;;;;;;;33.70;17.13;;;16.60;99.90;;;;;;5055589;28;20075;-73
2023/08/22 02:47:07;;;;;;;37.70;16.37;;;16.70;99.90;;;;;;5056562;28;20052;-72
2023/08/22 02:49:33;;;;;;;38.07;16.37;;;16.60;99.90;;;;;;5039570;28;20081;-74
2023/08/22 02:51:58;;;;;;;28.93;15.53;;;16.60;99.90;;;;;;5057231;28;20065;-74
2023/08/22 02:54:24;;;;;;;27.13;16.43;;;16.60;99.90;;;;;;5056301;28;20123;-73
2023/08/22 02:56:50;;;;;;;25.83;15.48;;;16.60;99.90;;;;;;5056023;28;20045;-73
2023/08/22 02:59:16;;;;;;;27.75;15.88;;;16.60;99.90;;;;;;5055972;28;20049;-74
2023/08/22 03:01:42;;;;;;;30.48;16.17;;;16.50;99.90;;;;;;5054537;28;20045;-74
2023/08/22 03:04:08;;;;;;;28.73;14.90;;;16.50;99.90;;;;;;5036285;28;20393;-74
2023/08/22 03:06:33;;;;;;;34.77;18.43;;;16.40;99.90;;;;;;5053505;28;20056;-74
2023/08/22 03:08:59;;;;;;;39.67;18.47;;;16.40;99.90;;;;;;5052579;28;20041;-73
2023/08/22 03:11:25;;;;;;;39.47;17.45;;;16.30;99.90;;;;;;5053700;28;20408;-73
2023/08/22 03:13:51;;;;;;;35.30;18.20;;;16.30;99.90;;;;;;5053287;28;20057;-74
2023/08/22 03:16:16;;;;;;;34.03;17.80;;;16.20;99.90;;;;;;5053645;28;20124;-73
2023/08/22 03:18:43;;;;;;;40.70;19.05;;;16.20;99.90;;;;;;5053533;28;20439;-73
2023/08/22 03:21:09;;;;;;;37.90;18.10;;;16.20;99.90;;;;;;5052017;28;20049;-73
2023/08/22 03:23:35;;;;;;;34.85;18.25;;;16.20;99.90;;;;;;5052761;28;20084;-74
2023/08/22 03:26:10;;;;;;;33.75;17.90;;;16.20;99.90;;;;;;5053257;28;20091;-72
2023/08/22 03:28:37;;;;;;;34.80;18.20;;;16.20;99.90;;;;;;5054311;28;20083;-73
2023/08/22 03:31:03;;;;;;;40.37;19.93;;;16.20;99.90;;;;;;5053125;28;20481;-74
2023/08/22 03:33:30;;;;;;;34.63;19.30;;;16.10;99.90;;;;;;5053703;28;20060;-74
2023/08/22 03:35:56;;;;;;;42.22;19.52;;;16.20;99.90;;;;;;5054008;28;20052;-74
2023/08/22 03:38:23;;;;;;;37.63;19.75;;;16.20;99.90;;;;;;5086108;28;20124;-74
2023/08/22 03:40:49;;;;;;;39.88;20.25;;;16.20;99.90;;;;;;5069136;28;20053;-73
2023/08/22 03:43:18;;;;;;;45.47;21.80;;;16.20;99.90;;;;;;5053951;28;20040;-74
2023/08/22 03:45:45;;;;;;;38.95;20.63;;;16.20;99.90;;;;;;5052919;28;20048;-73
2023/08/22 03:48:11;;;;;;;43.75;21.52;;;16.20;99.90;;;;;;5053355;28;20053;-73
2023/08/22 03:50:41;;;;;;;39.63;20.85;;;16.20;99.90;;;;;;5053337;28;20041;-73
2023/08/22 03:53:08;;;;;;;42.38;20.58;;;16.20;99.90;;;;;;5085785;28;20053;-73
2023/08/22 03:55:34;;;;;;;35.92;20.10;;;16.20;99.90;;;;;;5053193;28;20037;-72
2023/08/22 03:58:00;;;;;;;40.80;19.87;;;16.10;99.90;;;;;;5053729;28;20051;-73
2023/08/22 04:00:27;;;;;;;37.75;19.40;;;16.00;99.90;;;;;;5052057;28;20128;-73
2023/08/22 04:02:57;;;;;;;36.47;19.37;;;16.00;99.90;;;;;;5051984;28;20045;-73
2023/08/22 04:05:23;;;;;;;42.72;21.50;;;15.90;99.90;;;;;;5053119;28;20045;-72
2023/08/22 04:07:50;;;;;;;39.27;20.17;;;15.90;99.90;;;;;;5051828;28;20075;-74
2023/08/22 04:10:16;;;;;;;36.75;19.52;;;15.80;99.90;;;;;;5052757;28;20542;-73
2023/08/22 04:12:42;;;;;;;41.78;19.08;;;15.70;99.90;;;;;;5053827;28;20131;-73
2023/08/22 04:15:10;;;;;;;38.87;19.30;;;15.70;99.90;;;;;;5068618;28;20049;-74
2023/08/22 04:17:36;;;;;;;36.08;19.48;;;15.60;99.90;;;;;;5085928;28;20309;-73
2023/08/22 04:20:03;;;;;;;36.23;18.50;;;15.60;99.90;;;;;;5051864;28;20045;-73
2023/08/22 04:22:30;;;;;;;36.13;20.02;;;15.50;99.90;;;;;;5051493;28;20555;-72
2023/08/22 04:24:56;;;;;;;44.38;20.13;;;15.50;99.90;;;;;;5052899;28;20120;-73
2023/08/22 04:27:22;;;;;;;32.57;17.50;;;15.40;99.90;;;;;;5051746;28;20123;-73
2023/08/22 04:29:48;;;;;;;33.20;18.95;;;15.40;99.90;;;;;;5052768;28;20704;-74
2023/08/22 04:32:14;;;;;;;36.05;18.77;;;15.40;99.90;;;;;;5052908;28;20051;-74
2023/08/22 04:34:39;;;;;;;41.35;20.20;;;15.30;99.90;;;;;;5052774;28;20052;-73
2023/08/22 04:37:05;;;;;;;35.75;19.15;;;15.30;99.90;;;;;;5052759;28;20478;-73
2023/08/22 04:39:31;;;;;;;38.00;19.30;;;15.30;99.90;;;;;;5088238;28;20075;-74
2023/08/22 04:41:56;;;;;;;31.23;17.88;;;15.20;99.90;;;;;;5056217;28;20128;-73
2023/08/22 04:44:22;;;;;;;33.22;18.65;;;15.30;99.90;;;;;;5056260;28;20478;-74
2023/08/22 04:46:48;;;;;;;32.90;18.13;;;15.20;99.90;;;;;;5055640;28;20048;-73
2023/08/22 04:49:14;;;;;;;36.90;19.10;;;15.20;99.90;;;;;;5055284;28;20084;-73
2023/08/22 04:51:39;;;;;;;42.30;21.73;;;15.10;99.90;;;;;;5054984;28;20110;-73
2023/08/22 04:54:05;;;;;;;40.22;21.20;;;15.10;99.90;;;;;;5056364;28;20080;-73
2023/08/22 04:56:31;;;;;;;37.77;21.57;;;15.10;99.90;;;;;;5056133;28;20456;-72
2023/08/22 04:58:57;;;;;;;41.00;22.35;;;15.20;99.90;;;;;;5055964;28;20500;-72
2023/08/22 05:01:22;;;;;;;46.25;23.27;;;15.20;99.90;;;;;;5054959;28;20041;-73
2023/08/22 05:03:48;;;;;;;41.13;20.55;;;15.20;99.90;;;;;;5038252;28;20053;-72
2023/08/22 05:06:14;;;;;;;44.70;21.60;;;15.20;99.90;;;;;;5054869;28;20385;-73
2023/08/22 05:08:40;;;;;;;44.47;22.98;;;15.30;99.90;;;;;;5054848;28;20037;-73
2023/08/22 05:11:05;;;;;;;45.63;24.27;;;15.30;99.90;;;;;;5055629;28;20144;-73
2023/08/22 05:13:31;;;;;;;40.40;22.90;;;15.30;99.90;;;;;;5055678;28;20049;-74
2023/08/22 05:15:57;;;;;;;44.70;24.02;;;15.40;99.90;;;;;;5055585;28;20041;-73
2023/08/22 05:18:22;;;;;;;46.73;25.27;;;15.40;99.90;;;;;;5054369;28;20371;-74
2023/08/22 05:20:51;;;;;;;50.30;25.27;;;15.50;99.90;;;;;;5055955;28;20048;-72
2023/08/22 05:23:17;;;;;;;43.92;22.80;;;15.50;99.90;;;;;;5055426;28;20401;-73
2023/08/22 05:25:43;;;;;;;42.13;22.65;;;15.60;99.90;;;;;;5053966;28;20041;-73
2023/08/22 05:28:09;;;;;;;43.70;23.37;;;15.70;99.90;;;;;;5087992;28;20091;-74
2023/08/22 05:30:38;;;;;;;41.72;21.83;;;15.80;99.90;;;;;;5054510;28;20477;-74
2023/08/22 05:33:05;;;;;;;50.97;23.38;;;15.90;99.90;;;;;;5055148;28;20045;-73
2023/08/22 05:35:31;;;;;;;40.60;22.00;;;16.00;99.90;;;;;;5070770;28;20049;-73
2023/08/22 05:37:56;;;;;;;44.70;22.00;;;16.10;99.90;;;;;;5055312;28;20045;-74
2023/08/22 05:40:22;;;;;;;42.20;22.77;;;16.20;99.90;;;;;;5037851;28;20080;-73
2023/08/22 05:42:47;;;;;;;46.72;21.15;;;16.30;99.90;;;;;;5055351;28;20489;-74
2023/08/22 05:45:13;;;;;;;46.20;20.73;;;16.50;99.90;;;;;;5055910;28;20102;-74
2023/08/22 05:47:39;;;;;;;47.33;20.93;;;16.50;99.90;;;;;;5061464;28;20390;-73
2023/08/22 05:50:06;;;;;;;41.65;21.65;;;16.60;99.90;;;;;;5060129;28;20071;-73
2023/08/22 05:52:31;;;;;;;37.92;20.58;;;16.60;99.90;;;;;;5043114;28;20052;-74
2023/08/22 05:54:57;;;;;;;44.50;21.57;;;16.60;99.90;;;;;;5058884;28;20053;-74
2023/08/22 05:57:23;;;;;;;46.60;21.03;;;16.70;99.90;;;;;;5058147;28;20044;-74
2023/08/22 05:59:49;;;;;;;48.13;21.77;;;16.70;99.90;;;;;;5057776;28;20045;-73
2023/08/22 06:02:15;;;;;;;47.13;22.08;;;16.90;99.90;;;;;;5057287;28;20080;-75
2023/08/22 06:04:41;;;;;;;46.10;21.63;;;17.00;99.90;;;;;;5056370;28;20048;-73
2023/08/22 06:07:07;;;;;;;44.23;21.20;;;17.10;99.90;;;;;;5057188;28;20136;-73
2023/08/22 06:09:32;;;;;;;46.07;21.43;;;17.30;99.90;;;;;;5089712;28;20033;-75
2023/08/22 06:11:58;;;;;;;43.30;21.40;;;17.40;99.90;;;;;;5057110;28;20060;-74
2023/08/22 06:14:24;;;;;;;47.23;21.87;;;17.60;99.90;;;;;;5055658;28;20091;-73
2023/08/22 06:16:50;;;;;;;44.60;20.70;;;17.80;99.90;;;;;;5053931;28;20056;-74
2023/08/22 06:19:15;;;;;;;49.70;21.63;;;17.90;99.90;;;;;;5054826;28;20053;-74
2023/08/22 06:21:41;;;;;;;48.37;20.57;;;18.00;99.90;;;;;;5053239;28;20078;-74
2023/08/22 06:24:08;;;;;;;43.87;21.00;;;18.20;99.90;;;;;;5036512;28;20045;-72
2023/08/22 06:26:33;;;;;;;46.95;21.08;;;18.30;99.90;;;;;;5054407;28;20048;-73
2023/08/22 06:28:59;;;;;;;48.80;20.67;;;18.40;99.90;;;;;;5037115;28;20037;-74
2023/08/22 06:31:25;;;;;;;48.33;21.13;;;18.50;99.90;;;;;;5070198;28;20370;-74
2023/08/22 06:33:50;;;;;;;50.23;20.63;;;18.60;99.90;;;;;;5054271;28;20091;-75
2023/08/22 06:36:16;;;;;;;39.10;18.07;;;18.70;99.90;;;;;;5054219;28;20044;-72
2023/08/22 06:38:42;;;;;;;50.47;20.03;;;18.70;99.90;;;;;;5053703;28;20508;-73
2023/08/22 06:41:08;;;;;;;45.50;20.33;;;18.80;99.90;;;;;;5053938;28;20489;-73
2023/08/22 06:43:34;;;;;;;47.50;20.50;;;18.90;99.90;;;;;;5054166;28;20370;-73
2023/08/22 06:45:59;;;;;;;45.37;18.83;;;18.90;99.90;;;;;;5086998;28;20472;-74
2023/08/22 06:48:27;;;;;;;43.93;18.03;;;19.00;99.90;;;;;;5052574;28;20044;-74
2023/08/22 06:50:53;;;;;;;45.83;19.55;;;19.10;99.90;;;;;;5054223;28;20048;-76
2023/08/22 06:53:19;;;;;;;43.20;18.03;;;19.20;99.90;;;;;;5053686;28;20102;-76
2023/08/22 06:55:46;;;;;;;46.78;17.70;;;19.20;99.90;;;;;;5053645;28;20046;-74
2023/08/22 06:58:12;;;;;;;42.13;18.60;;;19.20;99.90;;;;;;5054090;28;20354;-72
2023/08/22 07:00:38;;;;;;;39.57;17.93;;;19.30;99.90;;;;;;5051756;28;20064;-73
2023/08/22 07:03:04;;;;;;;38.00;16.57;;;19.30;99.90;;;;;;5069120;28;20049;-73
2023/08/22 07:05:30;;;;;;;39.63;15.87;;;19.40;99.90;;;;;;5052349;28;20389;-74
2023/08/22 07:07:56;;;;;;;41.90;15.50;;;19.40;99.90;;;;;;5052624;28;20128;-73
2023/08/22 07:10:22;;;;;;;45.00;15.95;;;19.50;99.90;;;;;;5053548;28;20092;-74
2023/08/22 07:12:48;;;;;;;40.30;15.07;;;19.60;99.90;;;;;;5053577;28;20228;-72
2023/08/22 07:15:14;;;;;;;41.20;14.80;;;19.80;99.90;;;;;;5035505;28;20084;-72
2023/08/22 07:17:39;;;;;;;31.42;13.18;;;19.90;99.90;;;;;;5035719;28;20489;-72
2023/08/22 07:20:06;;;;;;;27.67;12.43;;;20.00;99.90;;;;;;5052451;28;20056;-71
2023/08/22 07:22:33;;;;;;;36.67;13.35;;;20.10;99.90;;;;;;5053459;28;20045;-73
2023/08/22 07:24:59;;;;;;;23.55;10.10;;;20.10;99.90;;;;;;5053333;28;20049;-71
2023/08/22 07:27:25;;;;;;;28.50;11.47;;;20.30;99.90;;;;;;5052073;28;20051;-72
2023/08/22 07:29:51;;;;;;;25.63;10.37;;;20.30;99.90;;;;;;5052576;28;20287;-73
2023/08/22 07:32:20;;;;;;;30.88;11.13;;;20.40;99.90;;;;;;5052790;28;20470;-72
2023/08/22 07:34:47;;;;;;;24.38;10.10;;;20.40;99.90;;;;;;5053343;28;20081;-72
2023/08/22 07:37:13;;;;;;;;;;;20.60;99.90;;;;;;5053858;28;20127;-73
2023/08/22 07:39:40;;;;;;;20.95;8.05;;;20.60;99.90;;;;;;5054089;28;19921;-72
2023/08/22 07:42:06;;;;;;;21.85;7.72;;;20.80;99.90;;;;;;5052662;28;20076;-72
2023/08/22 07:44:32;;;;;;;20.30;7.40;;;20.90;99.90;;;;;;5053438;28;20060;-73
2023/08/22 07:46:58;;;;;;;19.98;7.30;;;21.00;99.90;;;;;;5053272;28;20045;-73
2023/08/22 07:49:26;;;;;;;19.30;7.60;;;21.10;99.90;;;;;;5035941;28;20133;-72
2023/08/22 07:51:52;;;;;;;21.17;7.95;;;21.20;99.90;;;;;;5053076;28;20049;-73
2023/08/22 07:54:18;;;;;;;21.70;8.00;;;21.20;99.90;;;;;;5051901;28;20055;-72
2023/08/22 07:56:47;;;;;;;21.20;6.70;;;21.30;99.90;;;;;;5053141;28;20052;-72
2023/08/22 07:59:13;;;;;;;13.45;5.03;;;21.50;99.90;;;;;;5052227;28;20381;-73
2023/08/22 08:01:39;;;;;;;18.85;5.32;;;21.60;99.90;;;;;;5053067;28;20459;-73
2023/08/22 08:04:06;;;;;;;16.80;5.15;;;21.70;99.90;;;;;;5051738;28;20146;-73
2023/08/22 08:06:36;;;;;;;18.65;6.45;;;21.80;99.90;;;;;;5053746;28;20084;-73
2023/08/22 08:09:04;;;;;;;14.90;5.47;;;22.00;99.90;;;;;;5051802;28;20041;-71
2023/08/22 08:11:31;;;;;;;12.82;5.05;;;22.10;99.90;;;;;;5051618;28;20511;-74
2023/08/22 08:13:57;;;;;;;;;;;22.30;99.90;;;;;;5055625;28;20124;-74
2023/08/22 08:16:25;;;;;;;15.82;3.97;;;22.30;99.90;;;;;;5056777;28;19970;-73
2023/08/22 08:18:52;;;;;;;14.60;4.35;;;22.50;99.90;;;;;;5057289;28;20049;-73
2023/08/22 08:21:18;;;;;;;13.63;3.50;;;22.60;99.90;;;;;;5039890;28;20044;-74
2023/08/22 08:23:44;;;;;;;14.15;3.70;;;22.50;99.90;;;;;;5057522;28;20053;-72
2023/08/22 08:26:11;;;;;;;9.73;3.10;;;22.60;99.90;;;;;;5055803;28;20037;-73
2023/08/22 08:28:37;;;;;;;14.48;3.28;;;22.60;99.90;;;;;;5056618;28;20056;-71
2023/08/22 08:31:02;;;;;;;13.57;3.70;;;22.70;99.90;;;;;;5056506;28;20049;-73
2023/08/22 08:33:28;;;;;;;19.00;4.27;;;22.70;99.90;;;;;;5055328;28;20513;-73
2023/08/22 08:35:54;;;;;;;8.17;2.93;;;22.70;99.90;;;;;;5022196;28;20071;-72
2023/08/22 08:38:20;;;;;;;11.77;3.77;;;22.70;99.90;;;;;;5056555;28;20120;-73
2023/08/22 08:40:46;;;;;;;11.68;3.97;;;22.60;99.90;;;;;;5038629;28;20056;-72
2023/08/22 08:43:12;;;;;;;10.55;3.03;;;22.70;99.90;;;;;;5054991;28;20049;-73
2023/08/22 08:45:39;;;;;;;11.60;3.47;;;22.80;99.90;;;;;;5038514;28;20497;-72
2023/08/22 08:48:06;;;;;;;12.15;3.65;;;22.90;99.90;;;;;;5055758;28;20048;-73
2023/08/22 08:50:33;;;;;;;10.68;2.80;;;23.00;99.90;;;;;;5056028;28;20397;-74
2023/08/22 08:52:59;;;;;;;10.02;2.83;;;23.00;99.90;;;;;;5056056;28;20048;-72
2023/08/22 08:55:25;;;;;;;13.48;2.55;;;23.10;99.90;;;;;;5038326;28;20080;-72
2023/08/22 08:57:56;;;;;;;15.90;2.63;;;23.20;99.90;;;;;;5056147;28;20081;-73
2023/08/22 09:00:22;;;;;;;9.25;2.15;;;23.20;99.90;;;;;;5055855;28;20051;-74
2023/08/22 09:02:48;;;;;;;10.30;2.47;;;23.20;99.90;;;;;;5056528;28;20092;-72
2023/08/22 09:05:16;;;;;;;8.85;2.67;;;23.30;99.90;;;;;;5055800;28;20091;-72
2023/08/22 09:07:44;;;;;;;14.55;3.42;;;23.30;99.90;;;;;;5055410;28;20543;-73
2023/08/22 09:10:10;;;;;;;15.73;3.25;;;23.20;99.90;;;;;;5055531;28;20212;-73
2023/08/22 09:12:37;;;;;;;11.98;3.70;;;23.10;99.90;;;;;;5054943;28;20151;-73
2023/08/22 09:15:09;;;;;;;10.85;3.40;;;23.10;99.90;;;;;;5055682;28;20059;-72
2023/08/22 09:17:35;;;;;;;14.07;3.53;;;23.10;99.90;;;;;;5055759;28;20052;-73
2023/08/22 09:20:09;;;;;;;14.37;3.83;;;22.90;99.90;;;;;;5039175;28;20103;-73
2023/08/22 09:22:35;;;;;;;17.95;3.55;;;22.90;99.90;;;;;;5056176;28;20048;-74
2023/08/22 09:25:03;;;;;;;16.67;3.95;;;22.80;99.90;;;;;;5054395;28;20123;-74
2023/08/22 09:27:29;;;;;;;13.82;3.67;;;22.70;99.90;;;;;;5055938;28;20119;-74
2023/08/22 09:30:06;;;;;;;11.23;4.22;;;22.50;99.90;;;;;;5054469;28;20136;-73
2023/08/22 09:32:32;;;;;;;20.23;4.60;;;22.40;99.90;;;;;;5056320;28;20090;-74
2023/08/22 09:35:00;;;;;;;17.77;4.95;;;22.40;99.90;;;;;;5054655;28;20060;-73
2023/08/22 09:37:37;;;;;;;16.73;4.97;;;22.40;99.90;;;;;;5055108;28;20052;-75
2023/08/22 09:40:09;;;;;;;19.33;5.90;;;22.50;99.90;;;;;;5040543;28;20127;-74
2023/08/22 09:42:39;;;;;;;18.55;5.43;;;22.60;99.90;;;;;;5057205;28;20071;-74
2023/08/22 09:45:05;;;;;;;17.65;5.97;;;22.70;99.90;;;;;;5057339;28;20053;-72
2023/08/22 09:47:31;;;;;;;20.30;6.38;;;22.80;99.90;;;;;;5056495;28;20049;-74
2023/08/22 09:50:04;;;;;;;18.92;5.82;;;22.90;99.90;;;;;;5056830;28;20048;-73
2023/08/22 09:52:31;;;;;;;24.25;7.00;;;23.00;99.90;;;;;;5055514;28;20087;-73
2023/08/22 09:54:57;;;;;;;;;;;23.20;99.90;;;;;;5038449;28;20048;-73
2023/08/22 09:57:25;;;;;;;17.08;6.63;;;23.30;99.90;;;;;;5087520;28;19982;-72
2023/08/22 09:59:51;;;;;;;19.08;6.28;;;23.50;99.90;;;;;;5054927;28;20049;-73
2023/08/22 10:02:20;;;;;;;22.92;7.00;;;23.50;99.90;;;;;;5055207;28;20448;-74
2023/08/22 10:04:49;;;;;;;16.50;5.05;;;23.50;99.90;;;;;;5053313;28;20509;-73
2023/08/22 10:07:14;;;;;;;14.85;4.38;;;23.50;99.90;;;;;;5055142;28;20037;-73
2023/08/22 10:09:41;;;;;;;14.50;4.10;;;23.60;99.90;;;;;;5054537;28;20091;-73
2023/08/22 10:12:11;;;;;;;17.38;4.38;;;23.80;99.90;;;;;;5037502;28;20680;-74
2023/08/22 10:14:55;;;;;;;14.75;4.03;;;24.00;99.90;;;;;;5053667;28;20045;-73
2023/08/22 10:17:25;;;;;;;17.27;4.88;;;24.20;99.90;;;;;;5055544;28;20428;-74
2023/08/22 10:19:51;;;;;;;17.15;4.82;;;24.20;99.90;;;;;;5055567;28;20418;-74
2023/08/22 10:22:17;;;;;;;17.23;4.55;;;24.10;99.90;;;;;;5055279;28;20192;-74
2023/08/22 10:24:46;;;;;;;16.77;5.50;;;24.10;99.90;;;;;;5055337;28;20051;-74
2023/08/22 10:27:13;;;;;;;21.15;5.03;;;23.90;99.90;;;;;;5054144;28;20660;-74
2023/08/22 10:29:45;;;;;;;20.25;5.88;;;23.70;99.90;;;;;;5054226;28;20101;-73
2023/08/22 10:32:10;;;;;;;16.80;5.20;;;23.80;99.90;;;;;;5053003;28;20156;-74
2023/08/22 10:34:39;;;;;;;20.97;4.60;;;23.90;99.90;;;;;;5054044;28;20077;-75
2023/08/22 10:37:12;;;;;;;15.82;4.32;;;24.10;99.90;;;;;;5052354;28;20056;-75
2023/08/22 10:39:41;;;;;;;15.40;4.20;;;24.40;99.90;;;;;;5054108;28;20051;-72
2023/08/22 10:42:21;;;;;;;13.45;4.13;;;24.60;99.90;;;;;;5054399;28;20045;-73
2023/08/22 10:44:52;;;;;;;12.90;3.47;;;24.70;99.90;;;;;;5052830;28;20128;-73
2023/08/22 10:47:19;;;;;;;16.33;3.97;;;24.80;99.90;;;;;;5054046;28;20053;-73
2023/08/22 10:49:50;;;;;;;11.90;3.25;;;24.70;99.90;;;;;;5053985;28;20084;-72
2023/08/22 10:52:16;;;;;;;12.05;3.67;;;24.70;99.90;;;;;;5053931;28;20044;-74
2023/08/22 10:54:57;;;;;;;;;;;24.70;99.90;;;;;;5053342;28;20163;-75
2023/08/22 10:57:27;;;;;;;17.63;4.30;;;24.70;99.90;;;;;;5053881;28;19928;-73
2023/08/22 11:00:13;;;;;;;16.05;3.40;;;24.80;99.90;;;;;;5052602;28;20049;-74
2023/08/22 11:02:40;;;;;;;14.95;3.53;;;24.70;99.90;;;;;;5054470;28;20487;-72
2023/08/22 11:05:11;;;;;;;12.98;4.07;;;24.60;99.90;;;;;;5053744;28;20397;-75
2023/08/22 11:07:41;;;;;;;13.98;3.70;;;24.30;99.90;;;;;;5052545;28;20056;-73
2023/08/22 11:10:14;;;;;;;15.32;3.63;;;24.30;99.90;;;;;;5053859;28;22380;-74
2023/08/22 11:12:40;;;;;;;12.25;2.97;;;24.20;99.90;;;;;;5053350;28;20534;-74
2023/08/22 11:15:07;;;;;;;11.63;3.10;;;24.10;99.90;;;;;;5054261;28;20385;-74
2023/08/22 11:17:37;;;;;;;15.43;2.53;;;24.10;99.90;;;;;;5052300;28;20118;-72
2023/08/22 11:20:04;;;;;;;11.38;2.50;;;24.20;99.90;;;;;;5053556;28;20051;-72
2023/08/22 11:22:32;;;;;;;11.57;2.50;;;24.20;99.90;;;;;;5052298;28;20120;-74
2023/08/22 11:24:57;;;;;;;13.18;2.47;;;24.20;99.90;;;;;;5053206;28;20049;-74
2023/08/22 11:27:23;;;;;;;9.53;2.57;;;24.20;99.90;;;;;;5035620;28;20174;-73
2023/08/22 11:29:52;;;;;;;16.40;2.87;;;24.20;99.90;;;;;;5053913;28;20284;-74
2023/08/22 11:32:27;;;;;;;12.52;2.90;;;24.30;99.90;;;;;;5053454;28;20047;-73
2023/08/22 11:34:57;;;;;;;10.98;2.17;;;;;;;;;;5052071;28;20045;-75
2023/08/22 11:37:25;;;;;;;10.05;1.83;;;;;;;;;;5053205;28;20064;-75
2023/08/22 11:39:51;;;;;;;12.80;2.53;;;;;;;;;;5053294;28;20051;-73
2023/08/22 11:42:17;;;;;;;;;;;;;;;;;;5053841;28;20053;-74
2023/08/22 11:45:02;;;;;;;10.90;1.40;;;;;;;;;;5085753;28;19977;-74
2023/08/22 11:47:46;;;;;;;7.70;1.00;;;;;;;;;;5055355;28;20063;-72
2023/08/22 11:50:16;;;;;;;7.47;1.60;;;;;;;;;;5057462;28;20049;-73
2023/08/22 11:52:43;;;;;;;9.05;1.50;;;;;;;;;;5056543;28;20496;-71
2023/08/22 11:55:10;;;;;;;6.50;1.23;;;;;;;;;;5057349;28;20048;-73
2023/08/22 11:57:38;;;;;;;10.65;1.83;;;;;;;;;;5055979;28;20055;-74
2023/08/22 12:00:07;;;;;;;5.75;1.38;;;;;;;;;;5057766;28;20045;-73
2023/08/22 12:02:34;;;;;;;7.82;1.63;;;;;;;;;;5057295;28;20051;-72
2023/08/22 12:05:00;;;;;;;;;;;;;;;;;;5056569;28;20099;-72
2023/08/22 12:07:26;;;;;;;8.80;1.02;;;;;;;;;;5089530;28;19925;-74
2023/08/22 12:09:58;;;;;;;7.53;0.98;;;;;;;;;;5056528;28;20512;-74
2023/08/22 12:12:25;;;;;;;10.50;1.40;;;;;;;;;;5057576;28;20045;-73
2023/08/22 12:14:51;;;;;;;8.13;1.70;;;;;;;;;;5056981;28;20049;-73
2023/08/22 12:17:17;;;;;;;10.68;2.30;;;;;;;;;;5056945;28;20068;-72
2023/08/22 12:19:43;;;;;;;8.30;2.05;;;;;;;;;;5057952;28;20094;-74
2023/08/22 12:22:09;;;;;;;;;;;;;;;;;;5057623;28;20094;-72
2023/08/22 12:24:36;;;;;;;15.88;4.43;;;;;;;;;;5056567;28;20328;-72
2023/08/22 12:27:02;;;;;;;14.02;3.90;;;;;;;;;;5057229;28;20049;-73
2023/08/22 12:29:28;;;;;;;15.27;4.10;;;;;;;;;;5060779;28;20143;-74
2023/08/22 12:31:54;;;;;;;13.85;3.45;;;;;;;;;;5058476;28;20441;-73
2023/08/22 12:34:21;;;;;;;13.38;3.40;;;;;;;;;;5059101;28;20099;-73
2023/08/22 12:36:47;;;;;;;19.98;3.78;;;;;;;;;;5043332;28;20049;-74
2023/08/22 12:39:13;;;;;;;16.60;3.58;;;;;;;;;;5060219;28;20135;-74
2023/08/22 12:41:39;;;;;;;15.40;3.20;;;;;;;;;;5060486;28;20045;-74